createdAt,value
2018-04-28T00:00:50.316Z,13.40
2018-04-28T00:01:50.326Z,13.30
2018-04-28T00:02:51.305Z,13.43
2018-04-28T00:03:50.321Z,13.37
2018-04-28T00:04:50.328Z,13.30
2018-04-28T00:05:50.326Z,13.33
2018-04-28T00:06:50.333Z,13.24
2018-04-28T00:07:50.345Z,13.30
2018-04-28T00:08:50.336Z,13.24
2018-04-28T00:09:50.335Z,13.25
2018-04-28T00:10:50.339Z,13.27
2018-04-28T00:11:50.345Z,13.32
2018-04-28T00:12:50.346Z,13.32
2018-04-28T00:13:50.351Z,13.24
2018-04-28T00:14:50.354Z,13.15
2018-04-28T00:15:50.356Z,13.25
2018-04-28T00:16:50.368Z,13.27
2018-04-28T00:17:50.359Z,13.25
2018-04-28T00:18:50.358Z,13.30
2018-04-28T00:19:50.368Z,13.27
2018-04-28T00:20:50.371Z,13.24
2018-04-28T00:21:50.370Z,13.29
2018-04-28T00:22:51.310Z,13.27
2018-04-28T00:23:50.377Z,13.27
2018-04-28T00:24:50.382Z,13.22
2018-04-28T00:25:50.377Z,13.22
2018-04-28T00:26:50.380Z,13.25
2018-04-28T00:27:50.391Z,13.29
2018-04-28T00:28:50.385Z,13.37
2018-04-28T00:29:50.395Z,13.40
2018-04-28T00:30:50.394Z,13.33
2018-04-28T00:31:50.400Z,13.36
2018-04-28T00:32:50.401Z,13.32
2018-04-28T00:33:50.401Z,13.37
2018-04-28T00:34:50.403Z,13.37
2018-04-28T00:35:50.411Z,13.36
2018-04-28T00:36:50.411Z,13.41
2018-04-28T00:37:50.408Z,13.36
2018-04-28T00:39:50.423Z,13.32
2018-04-28T00:40:50.419Z,13.37
2018-04-28T00:41:50.427Z,13.30
2018-04-28T00:42:50.431Z,13.30
2018-04-28T00:43:50.431Z,13.36
2018-04-28T00:44:50.436Z,13.32
2018-04-28T00:45:50.434Z,13.32
2018-04-28T00:46:50.440Z,13.36
2018-04-28T00:47:50.442Z,13.32
2018-04-28T00:48:57.317Z,13.38
2018-04-28T00:49:52.244Z,13.44
2018-04-28T00:51:50.459Z,13.41
2018-04-28T00:52:50.461Z,13.43
2018-04-28T00:53:50.461Z,13.51
2018-04-28T00:54:50.473Z,13.51
2018-04-28T00:55:50.458Z,13.43
2018-04-28T00:56:50.470Z,13.47
2018-04-28T00:57:50.463Z,13.46
2018-04-28T00:58:50.472Z,13.46
2018-04-28T00:59:50.472Z,13.49
2018-04-28T01:00:50.478Z,13.46
2018-04-28T01:01:50.478Z,13.51
2018-04-28T01:02:50.489Z,13.51
2018-04-28T01:03:50.490Z,13.46
2018-04-28T01:04:50.501Z,13.46
2018-04-28T01:05:50.495Z,13.51
2018-04-28T01:06:50.515Z,13.43
2018-04-28T01:07:50.501Z,13.46
2018-04-28T01:08:50.497Z,13.44
2018-04-28T01:09:50.501Z,13.51
2018-04-28T01:10:50.501Z,13.49
2018-04-28T01:11:50.510Z,13.51
2018-04-28T01:12:50.506Z,13.49
2018-04-28T01:13:50.516Z,13.43
2018-04-28T01:14:50.512Z,13.41
2018-04-28T01:15:50.520Z,13.49
2018-04-28T01:16:50.521Z,13.44
2018-04-28T01:17:50.525Z,13.47
2018-04-28T01:18:50.528Z,13.43
2018-04-28T01:19:50.523Z,13.41
2018-04-28T01:20:50.536Z,13.43
2018-04-28T01:21:50.536Z,13.46
2018-04-28T01:22:50.536Z,13.46
2018-04-28T01:23:50.537Z,13.47
2018-04-28T01:24:50.544Z,13.55
2018-04-28T01:25:50.543Z,13.55
2018-04-28T01:26:50.544Z,13.56
2018-04-28T01:27:50.553Z,13.61
2018-04-28T01:28:50.561Z,13.56
2018-04-28T01:29:50.556Z,13.55
2018-04-28T01:30:50.555Z,13.56
2018-04-28T01:31:50.565Z,13.61
2018-04-28T01:32:50.565Z,13.59
2018-04-28T01:33:50.564Z,13.67
2018-04-28T01:34:50.569Z,13.59
2018-04-28T01:35:50.570Z,13.67
2018-04-28T01:36:50.579Z,13.70
2018-04-28T01:37:50.576Z,13.70
2018-04-28T01:38:50.584Z,13.58
2018-04-28T01:39:50.579Z,13.61
2018-04-28T01:40:50.591Z,13.59
2018-04-28T01:41:50.585Z,13.69
2018-04-28T01:42:50.590Z,13.65
2018-04-28T01:43:50.603Z,13.69
2018-04-28T01:44:50.593Z,13.70
2018-04-28T01:45:50.599Z,13.67
2018-04-28T01:46:50.600Z,13.59
2018-04-28T01:47:50.635Z,13.61
2018-04-28T01:48:50.607Z,13.56
2018-04-28T01:49:50.611Z,13.56
2018-04-28T01:50:50.618Z,13.70
2018-04-28T01:51:50.612Z,13.63
2018-04-28T01:52:50.631Z,13.56
2018-04-28T01:53:50.621Z,13.71
2018-04-28T01:54:50.646Z,13.65
2018-04-28T01:55:50.625Z,13.65
2018-04-28T01:56:50.635Z,13.65
2018-04-28T01:57:50.635Z,13.76
2018-04-28T01:58:50.640Z,13.67
2018-04-28T01:59:50.639Z,13.70
2018-04-28T02:00:50.647Z,13.70
2018-04-28T02:01:50.646Z,13.76
2018-04-28T02:02:50.642Z,13.81
2018-04-28T02:03:50.654Z,13.80
2018-04-28T02:04:50.654Z,13.73
2018-04-28T02:05:50.653Z,13.73
2018-04-28T02:06:50.662Z,13.83
2018-04-28T02:07:50.664Z,13.80
2018-04-28T02:08:50.670Z,13.71
2018-04-28T02:09:50.665Z,13.73
2018-04-28T02:10:50.674Z,13.67
2018-04-28T02:11:50.671Z,13.71
2018-04-28T02:12:50.684Z,13.71
2018-04-28T02:13:50.675Z,13.63
2018-04-28T02:14:50.685Z,13.65
2018-04-28T02:15:50.687Z,13.62
2018-04-28T02:16:50.690Z,13.69
2018-04-28T02:17:50.707Z,13.59
2018-04-28T02:18:50.705Z,13.59
2018-04-28T02:19:50.719Z,13.67
2018-04-28T02:20:50.704Z,13.59
2018-04-28T02:21:50.698Z,13.61
2018-04-28T02:22:50.707Z,13.56
2018-04-28T02:23:50.703Z,13.55
2018-04-28T02:24:50.713Z,13.54
2018-04-28T02:25:50.709Z,13.54
2018-04-28T02:26:50.716Z,13.41
2018-04-28T02:27:50.719Z,13.44
2018-04-28T02:28:50.739Z,13.46
2018-04-28T02:29:50.723Z,13.46
2018-04-28T02:30:50.743Z,13.49
2018-04-28T02:31:50.735Z,13.44
2018-04-28T02:32:50.731Z,13.38
2018-04-28T02:33:50.729Z,13.44
2018-04-28T02:34:50.739Z,13.43
2018-04-28T02:35:50.744Z,13.37
2018-04-28T02:36:50.740Z,13.37
2018-04-28T02:37:50.751Z,13.43
2018-04-28T02:38:50.749Z,13.44
2018-04-28T02:39:50.751Z,13.41
2018-04-28T02:40:50.756Z,13.41
2018-04-28T02:41:50.763Z,13.38
2018-04-28T02:42:50.766Z,13.44
2018-04-28T02:43:50.758Z,13.40
2018-04-28T02:44:50.763Z,13.38
2018-04-28T02:45:50.775Z,13.41
2018-04-28T02:46:50.774Z,13.37
2018-04-28T02:47:50.778Z,13.40
2018-04-28T02:48:50.778Z,13.33
2018-04-28T02:49:50.789Z,13.38
2018-04-28T02:50:50.780Z,13.36
2018-04-28T02:51:50.783Z,13.37
2018-04-28T02:52:50.796Z,13.37
2018-04-28T02:53:50.785Z,13.37
2018-04-28T02:54:50.792Z,13.33
2018-04-28T02:55:50.810Z,13.37
2018-04-28T02:56:50.806Z,13.37
2018-04-28T02:57:50.796Z,13.33
2018-04-28T02:58:50.797Z,13.20
2018-04-28T02:59:50.810Z,13.27
2018-04-28T03:00:50.813Z,13.25
2018-04-28T03:01:50.811Z,13.18
2018-04-28T03:02:50.819Z,13.24
2018-04-28T03:03:50.821Z,13.21
2018-04-28T03:04:50.819Z,13.20
2018-04-28T03:05:50.829Z,13.24
2018-04-28T03:06:50.820Z,13.24
2018-04-28T03:07:50.831Z,13.20
2018-04-28T03:08:50.830Z,13.17
2018-04-28T03:09:50.836Z,13.15
2018-04-28T03:10:50.831Z,13.20
2018-04-28T03:11:50.841Z,13.18
2018-04-28T03:12:50.842Z,13.14
2018-04-28T03:13:50.853Z,13.15
2018-04-28T03:14:50.847Z,13.18
2018-04-28T03:15:50.852Z,13.15
2018-04-28T03:16:50.855Z,13.15
2018-04-28T03:17:50.848Z,13.15
2018-04-28T03:18:50.858Z,13.04
2018-04-28T03:19:50.865Z,13.17
2018-04-28T03:20:50.868Z,13.14
2018-04-28T03:21:50.870Z,13.09
2018-04-28T03:22:50.863Z,13.14
2018-04-28T03:23:50.870Z,13.12
2018-04-28T03:24:50.880Z,13.17
2018-04-28T03:25:50.870Z,13.11
2018-04-28T03:26:50.877Z,13.02
2018-04-28T03:27:51.855Z,13.14
2018-04-28T03:28:50.883Z,13.07
2018-04-28T03:29:50.885Z,13.12
2018-04-28T03:30:50.883Z,13.07
2018-04-28T03:31:50.896Z,13.12
2018-04-28T03:32:50.890Z,13.02
2018-04-28T03:33:50.900Z,13.07
2018-04-28T03:34:50.902Z,12.97
2018-04-28T03:35:50.895Z,13.00
2018-04-28T03:36:50.901Z,13.06
2018-04-28T03:37:50.902Z,13.06
2018-04-28T03:38:50.907Z,13.12
2018-04-28T03:39:50.915Z,13.00
2018-04-28T03:40:50.909Z,13.07
2018-04-28T03:41:50.920Z,13.07
2018-04-28T03:42:50.919Z,13.06
2018-04-28T03:43:50.925Z,13.04
2018-04-28T03:44:50.925Z,13.09
2018-04-28T03:45:50.924Z,13.06
2018-04-28T03:46:50.933Z,12.99
2018-04-28T03:47:50.927Z,13.00
2018-04-28T03:48:50.938Z,13.06
2018-04-28T03:49:50.933Z,13.09
2018-04-28T03:50:50.936Z,13.00
2018-04-28T03:51:50.948Z,13.09
2018-04-28T03:52:50.951Z,13.07
2018-04-28T03:53:50.956Z,13.02
2018-04-28T03:54:50.947Z,13.12
2018-04-28T03:55:50.948Z,13.02
2018-04-28T03:56:50.963Z,13.11
2018-04-28T03:57:50.953Z,13.02
2018-04-28T03:58:50.965Z,13.06
2018-04-28T03:59:50.958Z,13.06
2018-04-28T04:00:50.963Z,13.06
2018-04-28T04:01:50.973Z,13.09
2018-04-28T04:02:50.972Z,13.17
2018-04-28T04:03:50.972Z,13.12
2018-04-28T04:04:50.977Z,13.12
2018-04-28T04:05:50.989Z,13.17
2018-04-28T04:06:50.995Z,13.18
2018-04-28T04:07:50.981Z,13.22
2018-04-28T04:08:50.986Z,13.29
2018-04-28T04:09:50.986Z,13.24
2018-04-28T04:10:50.995Z,13.25
2018-04-28T04:11:50.994Z,13.25
2018-04-28T04:12:51.004Z,13.27
2018-04-28T04:13:51.020Z,13.24
2018-04-28T04:14:51.017Z,13.33
2018-04-28T04:15:51.001Z,13.25
2018-04-28T04:16:51.026Z,13.25
2018-04-28T04:17:51.012Z,13.36
2018-04-28T04:18:51.195Z,13.30
2018-04-28T04:19:51.043Z,13.36
2018-04-28T04:20:51.063Z,13.36
2018-04-28T04:21:51.018Z,13.38
2018-04-28T04:22:51.029Z,13.41
2018-04-28T04:23:51.024Z,13.46
2018-04-28T04:24:51.032Z,13.46
2018-04-28T04:25:51.024Z,13.41
2018-04-28T04:26:51.034Z,13.43
2018-04-28T04:27:51.038Z,13.54
2018-04-28T04:28:51.040Z,13.52
2018-04-28T04:29:51.057Z,13.58
2018-04-28T04:30:51.041Z,13.56
2018-04-28T04:31:51.087Z,13.58
2018-04-28T04:32:51.051Z,13.71
2018-04-28T04:33:51.052Z,13.63
2018-04-28T04:34:51.058Z,13.70
2018-04-28T04:35:51.064Z,13.74
2018-04-28T04:36:51.076Z,13.83
2018-04-28T04:37:51.084Z,13.79
2018-04-28T04:38:51.088Z,13.87
2018-04-28T04:39:51.087Z,13.83
2018-04-28T04:40:51.085Z,13.95
2018-04-28T04:41:51.101Z,13.96
2018-04-28T04:42:51.153Z,14.04
2018-04-28T04:43:51.087Z,14.12
2018-04-28T04:44:51.124Z,14.10
2018-04-28T04:45:51.096Z,14.10
2018-04-28T04:46:51.094Z,14.10
2018-04-28T04:47:51.088Z,14.10
2018-04-28T04:48:51.196Z,14.19
2018-04-28T04:49:51.109Z,14.21
2018-04-28T04:50:51.101Z,14.24
2018-04-28T04:51:51.102Z,14.34
2018-04-28T04:52:51.111Z,14.34
2018-04-28T04:53:51.110Z,14.38
2018-04-28T04:54:51.122Z,14.42
2018-04-28T04:55:51.116Z,14.52
2018-04-28T04:56:51.130Z,14.54
2018-04-28T04:57:51.121Z,14.47
2018-04-28T04:58:51.126Z,14.53
2018-04-28T04:59:51.125Z,14.64
2018-04-28T05:00:51.132Z,14.60
2018-04-28T05:01:51.132Z,14.60
2018-04-28T05:02:51.143Z,14.53
2018-04-28T05:03:51.153Z,14.64
2018-04-28T05:04:51.143Z,14.65
2018-04-28T05:05:51.156Z,14.72
2018-04-28T05:06:51.170Z,14.50
2018-04-28T05:07:51.154Z,14.50
2018-04-28T05:08:51.156Z,14.65
2018-04-28T05:09:51.160Z,14.74
2018-04-28T05:10:51.166Z,14.78
2018-04-28T05:11:51.172Z,14.81
2018-04-28T05:12:51.172Z,14.78
2018-04-28T05:13:51.172Z,14.86
2018-04-28T05:14:51.174Z,14.90
2018-04-28T05:15:51.180Z,15.01
2018-04-28T05:16:51.188Z,15.06
2018-04-28T05:17:51.182Z,15.20
2018-04-28T05:18:51.189Z,15.11
2018-04-28T05:19:51.188Z,14.99
2018-04-28T05:20:51.195Z,15.15
2018-04-28T05:21:51.204Z,15.17
2018-04-28T05:22:51.199Z,15.09
2018-04-28T05:23:51.217Z,15.27
2018-04-28T05:24:51.214Z,15.28
2018-04-28T05:25:51.212Z,15.27
2018-04-28T05:26:51.218Z,15.27
2018-04-28T05:27:51.228Z,15.41
2018-04-28T05:28:51.239Z,15.43
2018-04-28T05:29:51.234Z,15.60
2018-04-28T05:30:51.236Z,15.81
2018-04-28T05:31:51.239Z,15.86
2018-04-28T05:32:51.235Z,15.96
2018-04-28T05:33:51.246Z,15.97
2018-04-28T05:34:51.246Z,16.07
2018-04-28T05:35:51.275Z,16.14
2018-04-28T05:36:51.254Z,16.20
2018-04-28T05:37:51.257Z,16.30
2018-04-28T05:38:51.288Z,16.44
2018-04-28T05:39:51.268Z,16.63
2018-04-28T05:40:51.271Z,16.59
2018-04-28T05:41:51.283Z,16.63
2018-04-28T05:42:51.279Z,16.77
2018-04-28T05:43:51.279Z,17.18
2018-04-28T05:44:51.287Z,17.41
2018-04-28T05:45:51.288Z,17.87
2018-04-28T05:46:51.298Z,18.34
2018-04-28T05:47:51.297Z,18.59
2018-04-28T05:48:51.307Z,18.95
2018-04-28T05:49:51.304Z,18.98
2018-04-28T05:50:51.316Z,18.82
2018-04-28T05:51:51.317Z,18.72
2018-04-28T05:52:51.329Z,18.61
2018-04-28T05:53:51.323Z,18.84
2018-04-28T05:54:51.334Z,19.20
2018-04-28T05:55:51.337Z,18.82
2018-04-28T05:56:51.347Z,18.68
2018-04-28T05:57:51.432Z,18.83
2018-04-28T05:58:51.359Z,19.06
2018-04-28T05:59:51.371Z,19.24
2018-04-28T06:00:51.372Z,19.46
2018-04-28T06:01:51.382Z,19.54
2018-04-28T06:02:51.374Z,19.66
2018-04-28T06:03:51.397Z,19.60
2018-04-28T06:04:51.406Z,19.91
2018-04-28T06:05:51.407Z,20.21
2018-04-28T06:06:51.397Z,20.30
2018-04-28T06:07:51.427Z,20.35
2018-04-28T06:08:51.412Z,20.23
2018-04-28T06:09:51.475Z,20.34
2018-04-28T06:10:51.433Z,20.27
2018-04-28T06:11:51.439Z,20.08
2018-04-28T06:12:51.448Z,20.15
2018-04-28T06:13:51.458Z,20.39
2018-04-28T06:14:51.460Z,20.66
2018-04-28T06:15:51.466Z,20.87
2018-04-28T06:16:51.476Z,21.36
2018-04-28T06:17:51.480Z,21.76
2018-04-28T06:18:51.508Z,22.34
2018-04-28T06:19:51.528Z,22.52
2018-04-28T06:20:51.517Z,22.57
2018-04-28T06:21:51.512Z,22.65
2018-04-28T06:22:51.538Z,22.47
2018-04-28T06:23:51.964Z,22.07
2018-04-28T06:25:51.623Z,21.39
2018-04-28T06:26:51.560Z,21.16
2018-04-28T06:30:34.019Z,19.65
2018-04-28T06:31:33.039Z,19.40
2018-04-28T06:33:25.090Z,18.95
2018-04-28T06:34:25.107Z,18.80
2018-04-28T06:36:18.048Z,18.62
2018-04-28T06:37:18.043Z,18.46
2018-04-28T06:39:10.990Z,18.68
2018-04-28T06:40:11.000Z,18.97
2018-04-28T06:42:03.948Z,19.55
2018-04-28T06:43:03.951Z,20.68
2018-04-28T06:45:00.931Z,21.91
2018-04-28T06:46:00.901Z,22.37
2018-04-28T06:47:00.912Z,22.78
2018-04-28T06:48:00.919Z,23.31
2018-04-28T06:49:00.930Z,23.24
2018-04-28T06:50:00.937Z,23.46
2018-04-28T06:51:00.990Z,23.45
2018-04-28T06:52:00.955Z,23.39
2018-04-28T06:53:01.082Z,23.04
2018-04-28T06:54:00.974Z,22.67
2018-04-28T06:55:00.985Z,22.35
2018-04-28T06:56:00.995Z,22.96
2018-04-28T06:57:01.003Z,23.04
2018-04-28T06:58:01.010Z,23.34
2018-04-28T06:59:01.022Z,23.79
2018-04-28T07:00:01.032Z,24.00
2018-04-28T07:01:01.041Z,23.77
2018-04-28T07:02:01.047Z,24.10
2018-04-28T07:03:01.066Z,24.63
2018-04-28T07:04:01.070Z,24.92
2018-04-28T07:05:01.088Z,25.46
2018-04-28T07:06:54.038Z,25.84
2018-04-28T07:07:54.025Z,26.05
2018-04-28T07:09:46.994Z,26.36
2018-04-28T07:10:47.018Z,26.29
2018-04-28T07:12:39.955Z,26.25
2018-04-28T07:13:39.931Z,26.06
2018-04-28T07:15:32.876Z,25.93
2018-04-28T07:16:32.894Z,26.12
2018-04-28T07:18:25.859Z,26.36
2018-04-28T07:19:25.846Z,26.58
2018-04-28T07:21:18.838Z,26.61
2018-04-28T07:22:18.800Z,26.72
2018-04-28T07:24:11.889Z,26.55
2018-04-28T07:25:11.767Z,26.50
2018-04-28T07:27:04.806Z,26.62
2018-04-28T07:28:04.826Z,26.58
2018-04-28T07:29:57.852Z,26.15
2018-04-28T07:30:57.788Z,26.36
2018-04-28T07:32:50.786Z,26.64
2018-04-28T07:33:50.733Z,26.58
2018-04-28T07:35:43.761Z,26.67
2018-04-28T07:36:43.701Z,26.91
2018-04-28T07:38:36.655Z,27.33
2018-04-28T07:39:36.644Z,27.71
2018-04-28T07:41:29.635Z,28.07
2018-04-28T07:42:29.613Z,28.01
2018-04-28T07:44:22.570Z,27.38
2018-04-28T07:45:22.576Z,27.46
2018-04-28T07:47:15.626Z,26.79
2018-04-28T07:48:15.526Z,26.28
2018-04-28T07:50:08.484Z,25.49
2018-04-28T07:51:08.481Z,25.28
2018-04-28T07:53:01.479Z,24.87
2018-04-28T07:54:01.501Z,24.94
2018-04-28T07:55:54.388Z,24.68
2018-04-28T07:56:54.394Z,24.41
2018-04-28T07:58:47.378Z,24.22
2018-04-28T07:59:47.359Z,24.39
2018-04-28T08:01:40.844Z,25.43
2018-04-28T08:02:40.817Z,25.50
2018-04-28T08:04:33.860Z,25.61
2018-04-28T08:05:33.779Z,25.47
2018-04-28T08:07:26.729Z,25.09
2018-04-28T08:08:26.734Z,24.82
2018-04-28T08:10:19.717Z,24.20
2018-04-28T08:11:19.698Z,23.76
2018-04-28T08:13:12.641Z,22.71
2018-04-28T08:14:12.658Z,22.44
2018-04-28T08:16:05.651Z,22.23
2018-04-28T08:17:05.620Z,22.07
2018-04-28T08:18:58.613Z,21.97
2018-04-28T08:19:58.606Z,21.78
2018-04-28T08:21:51.642Z,21.56
2018-04-28T08:22:51.616Z,21.56
2018-04-28T08:24:44.564Z,21.36
2018-04-28T08:25:44.580Z,21.14
2018-04-28T08:27:38.129Z,20.90
2018-04-28T08:28:38.068Z,20.77
2018-04-28T08:30:31.001Z,20.16
2018-04-28T08:31:31.997Z,20.09
2018-04-28T08:32:31.007Z,20.00
2018-04-28T08:34:23.950Z,19.83
2018-04-28T08:35:23.909Z,19.76
2018-04-28T08:37:16.959Z,19.61
2018-04-28T08:38:16.814Z,19.57
2018-04-28T08:40:09.805Z,19.66
2018-04-28T08:41:09.779Z,19.68
2018-04-28T08:43:02.721Z,19.87
2018-04-28T08:44:02.733Z,19.84
2018-04-28T08:45:55.733Z,19.70
2018-04-28T08:46:55.719Z,19.63
2018-04-28T08:47:55.735Z,19.65
2018-04-28T08:48:55.735Z,19.80
2018-04-28T08:49:55.744Z,20.00
2018-04-28T08:50:55.756Z,20.21
2018-04-28T08:51:55.757Z,20.23
2018-04-28T08:52:55.771Z,20.41
2018-04-28T08:53:55.776Z,20.58
2018-04-28T08:54:55.778Z,20.59
2018-04-28T08:55:55.791Z,20.69
2018-04-28T08:56:55.796Z,21.06
2018-04-28T08:57:55.802Z,21.26
2018-04-28T08:58:55.813Z,21.45
2018-04-28T08:59:55.817Z,21.63
2018-04-28T09:00:55.832Z,21.72
2018-04-28T09:01:55.839Z,21.67
2018-04-28T09:02:55.846Z,21.81
2018-04-28T09:03:55.861Z,22.02
2018-04-28T09:04:55.859Z,22.06
2018-04-28T09:05:55.874Z,22.35
2018-04-28T09:06:55.876Z,22.31
2018-04-28T09:07:55.886Z,22.28
2018-04-28T09:08:55.900Z,22.31
2018-04-28T09:09:55.907Z,22.13
2018-04-28T09:10:55.920Z,22.09
2018-04-28T09:11:55.937Z,22.28
2018-04-28T09:12:55.944Z,22.44
2018-04-28T09:13:55.950Z,22.53
2018-04-28T09:14:55.964Z,22.64
2018-04-28T09:15:55.973Z,22.46
2018-04-28T09:16:55.971Z,22.13
2018-04-28T09:17:55.989Z,22.13
2018-04-28T09:18:55.996Z,23.09
2018-04-28T09:19:56.003Z,24.10
2018-04-28T09:20:56.018Z,24.63
2018-04-28T09:21:56.033Z,25.15
2018-04-28T09:22:56.064Z,25.16
2018-04-28T09:23:56.049Z,25.06
2018-04-28T09:24:56.099Z,24.63
2018-04-28T09:25:56.076Z,24.31
2018-04-28T09:26:56.074Z,24.49
2018-04-28T09:27:56.097Z,24.73
2018-04-28T09:28:56.106Z,24.73
2018-04-28T09:29:56.114Z,25.13
2018-04-28T09:30:56.133Z,25.17
2018-04-28T09:31:56.141Z,25.28
2018-04-28T09:32:56.157Z,25.38
2018-04-28T09:33:56.167Z,25.44
2018-04-28T09:34:56.226Z,25.52
2018-04-28T09:35:56.187Z,25.49
2018-04-28T09:36:56.209Z,25.65
2018-04-28T09:37:56.355Z,25.68
2018-04-28T09:38:56.229Z,25.64
2018-04-28T09:39:56.344Z,25.65
2018-04-28T09:40:56.260Z,25.56
2018-04-28T09:41:56.267Z,25.38
2018-04-28T09:42:56.286Z,25.32
2018-04-28T09:43:56.296Z,25.30
2018-04-28T09:44:56.333Z,25.47
2018-04-28T09:45:56.329Z,25.46
2018-04-28T09:46:56.339Z,25.28
2018-04-28T09:47:56.356Z,25.02
2018-04-28T09:48:56.363Z,24.98
2018-04-28T09:49:56.382Z,24.80
2018-04-28T09:50:56.390Z,24.68
2018-04-28T09:51:56.406Z,24.73
2018-04-28T09:52:56.423Z,24.69
2018-04-28T09:53:56.440Z,24.75
2018-04-28T09:54:56.448Z,24.54
2018-04-28T09:55:56.485Z,24.54
2018-04-28T09:56:56.474Z,24.38
2018-04-28T09:57:56.504Z,24.17
2018-04-28T09:58:56.575Z,23.83
2018-04-28T09:59:56.512Z,23.61
2018-04-28T10:00:56.528Z,23.52
2018-04-28T10:01:56.537Z,23.26
2018-04-28T10:02:56.551Z,23.02
2018-04-28T10:03:56.568Z,22.83
2018-04-28T10:04:56.575Z,22.68
2018-04-28T10:05:56.599Z,22.68
2018-04-28T10:06:56.617Z,22.69
2018-04-28T10:07:56.619Z,22.64
2018-04-28T10:08:56.626Z,22.60
2018-04-28T10:09:56.634Z,22.49
2018-04-28T10:10:56.655Z,22.50
2018-04-28T10:11:56.671Z,22.43
2018-04-28T10:12:56.676Z,22.46
2018-04-28T10:13:56.679Z,22.54
2018-04-28T10:14:57.628Z,22.52
2018-04-28T10:15:56.708Z,22.16
2018-04-28T10:16:56.719Z,21.94
2018-04-28T10:17:56.738Z,21.78
2018-04-28T10:18:56.740Z,21.94
2018-04-28T10:19:56.745Z,21.78
2018-04-28T10:20:56.754Z,21.94
2018-04-28T10:21:56.765Z,21.88
2018-04-28T10:22:56.772Z,21.63
2018-04-28T10:23:56.783Z,21.72
2018-04-28T10:24:56.801Z,21.64
2018-04-28T10:25:56.805Z,21.61
2018-04-28T10:26:56.817Z,21.57
2018-04-28T10:27:56.828Z,21.57
2018-04-28T10:28:56.828Z,21.53
2018-04-28T10:29:56.848Z,21.61
2018-04-28T10:30:56.872Z,21.63
2018-04-28T10:31:56.860Z,21.64
2018-04-28T10:32:56.869Z,21.53
2018-04-28T10:33:56.878Z,21.48
2018-04-28T10:34:56.894Z,21.50
2018-04-28T10:35:56.901Z,21.71
2018-04-28T10:36:56.906Z,21.79
2018-04-28T10:37:56.920Z,21.98
2018-04-28T10:38:56.936Z,22.06
2018-04-28T10:39:56.936Z,22.10
2018-04-28T10:40:56.950Z,21.94
2018-04-28T10:41:56.951Z,21.39
2018-04-28T10:42:56.974Z,21.27
2018-04-28T10:43:56.969Z,21.20
2018-04-28T10:44:56.987Z,21.13
2018-04-28T10:45:56.988Z,21.09
2018-04-28T10:46:57.015Z,21.13
2018-04-28T10:47:57.012Z,21.09
2018-04-28T10:48:57.044Z,21.06
2018-04-28T10:49:57.056Z,21.14
2018-04-28T10:50:57.058Z,21.16
2018-04-28T10:51:57.054Z,21.08
2018-04-28T10:52:57.099Z,21.01
2018-04-28T10:53:57.149Z,20.93
2018-04-28T10:54:57.077Z,20.86
2018-04-28T10:55:57.078Z,20.96
2018-04-28T10:56:57.106Z,21.13
2018-04-28T10:57:57.099Z,21.26
2018-04-28T10:58:57.108Z,21.44
2018-04-28T10:59:57.119Z,21.69
2018-04-28T11:00:57.127Z,21.95
2018-04-28T11:01:57.130Z,22.06
2018-04-28T11:02:57.142Z,22.25
2018-04-28T11:03:57.147Z,22.06
2018-04-28T11:04:57.159Z,21.99
2018-04-28T11:05:57.163Z,22.04
2018-04-28T11:06:57.179Z,21.98
2018-04-28T11:07:57.184Z,21.99
2018-04-28T11:08:57.199Z,22.07
2018-04-28T11:09:57.210Z,22.12
2018-04-28T11:10:57.208Z,22.09
2018-04-28T11:11:57.219Z,22.14
2018-04-28T11:12:57.231Z,22.12
2018-04-28T11:13:57.238Z,22.20
2018-04-28T11:14:57.254Z,22.14
2018-04-28T11:15:57.257Z,22.04
2018-04-28T11:16:57.265Z,22.07
2018-04-28T11:17:57.268Z,21.78
2018-04-28T11:18:57.289Z,21.76
2018-04-28T11:19:57.390Z,21.66
2018-04-28T11:20:57.310Z,21.46
2018-04-28T11:21:57.311Z,21.42
2018-04-28T11:22:57.321Z,21.51
2018-04-28T11:23:57.329Z,21.46
2018-04-28T11:24:57.338Z,21.61
2018-04-28T11:25:57.340Z,21.50
2018-04-28T11:26:57.368Z,21.56
2018-04-28T11:27:57.371Z,21.54
2018-04-28T11:28:57.374Z,21.36
2018-04-28T11:29:57.384Z,21.30
2018-04-28T11:30:57.390Z,21.24
2018-04-28T11:31:57.397Z,21.16
2018-04-28T11:32:57.430Z,21.01
2018-04-28T11:33:57.418Z,21.02
2018-04-28T11:34:57.428Z,21.02
2018-04-28T11:35:57.447Z,21.19
2018-04-28T11:36:57.437Z,21.09
2018-04-28T11:37:57.448Z,20.99
2018-04-28T11:38:57.465Z,20.90
2018-04-28T11:39:57.468Z,20.91
2018-04-28T11:40:57.483Z,21.02
2018-04-28T11:41:57.489Z,21.04
2018-04-28T11:42:57.540Z,21.23
2018-04-28T11:43:57.502Z,21.34
2018-04-28T11:44:57.512Z,21.32
2018-04-28T11:45:57.512Z,21.53
2018-04-28T11:46:57.531Z,21.75
2018-04-28T11:47:57.531Z,21.74
2018-04-28T11:48:57.560Z,21.81
2018-04-28T11:49:57.549Z,21.83
2018-04-28T11:50:57.580Z,21.99
2018-04-28T11:51:57.564Z,22.01
2018-04-28T11:52:57.585Z,21.98
2018-04-28T11:53:57.591Z,22.07
2018-04-28T11:54:57.603Z,22.19
2018-04-28T11:55:57.632Z,22.27
2018-04-28T11:56:57.615Z,22.34
2018-04-28T11:57:57.627Z,22.20
2018-04-28T11:58:57.645Z,22.19
2018-04-28T11:59:57.643Z,22.02
2018-04-28T12:00:57.646Z,21.97
2018-04-28T12:01:57.678Z,21.92
2018-04-28T12:02:57.665Z,21.88
2018-04-28T12:03:57.679Z,21.94
2018-04-28T12:04:57.698Z,21.71
2018-04-28T12:05:57.692Z,21.59
2018-04-28T12:06:57.707Z,21.39
2018-04-28T12:07:57.707Z,21.30
2018-04-28T12:08:57.723Z,21.16
2018-04-28T12:09:57.737Z,21.11
2018-04-28T12:10:57.747Z,21.01
2018-04-28T12:11:57.789Z,21.13
2018-04-28T12:12:57.758Z,21.11
2018-04-28T12:13:57.767Z,21.13
2018-04-28T12:14:57.771Z,21.09
2018-04-28T12:15:57.808Z,21.09
2018-04-28T12:16:57.798Z,20.98
2018-04-28T12:17:57.817Z,20.98
2018-04-28T12:18:57.804Z,21.05
2018-04-28T12:19:57.812Z,21.05
2018-04-28T12:20:57.865Z,20.91
2018-04-28T12:21:57.827Z,20.95
2018-04-28T12:22:57.838Z,20.95
2018-04-28T12:23:57.850Z,20.86
2018-04-28T12:24:57.854Z,20.89
2018-04-28T12:25:57.862Z,20.95
2018-04-28T12:26:57.880Z,20.87
2018-04-28T12:27:57.873Z,20.91
2018-04-28T12:28:57.893Z,21.02
2018-04-28T12:29:57.978Z,21.09
2018-04-28T12:30:57.902Z,21.26
2018-04-28T12:31:57.916Z,21.24
2018-04-28T12:32:57.915Z,21.14
2018-04-28T12:33:57.931Z,21.13
2018-04-28T12:34:57.932Z,21.23
2018-04-28T12:35:58.025Z,21.41
2018-04-28T12:36:57.951Z,21.50
2018-04-28T12:37:57.961Z,21.51
2018-04-28T12:38:57.966Z,21.45
2018-04-28T12:39:57.971Z,21.32
2018-04-28T12:40:57.983Z,21.35
2018-04-28T12:41:57.989Z,21.27
2018-04-28T12:42:57.997Z,21.32
2018-04-28T12:43:58.011Z,21.27
2018-04-28T12:44:58.013Z,21.24
2018-04-28T12:45:58.021Z,21.11
2018-04-28T12:46:58.038Z,21.11
2018-04-28T12:47:58.046Z,21.04
2018-04-28T12:48:58.050Z,21.01
2018-04-28T12:49:58.061Z,20.96
2018-04-28T12:50:58.364Z,21.01
2018-04-28T12:51:58.764Z,20.95
2018-04-28T12:52:58.171Z,20.84
2018-04-28T12:53:58.101Z,20.77
2018-04-28T12:54:58.361Z,20.81
2018-04-28T12:55:58.117Z,20.80
2018-04-28T12:56:58.139Z,20.86
2018-04-28T12:57:58.122Z,20.96
2018-04-28T12:58:58.134Z,21.06
2018-04-28T12:59:58.154Z,21.26
2018-04-28T13:00:58.143Z,21.30
2018-04-28T13:01:58.159Z,21.38
2018-04-28T13:02:58.159Z,21.48
2018-04-28T13:03:58.180Z,21.57
2018-04-28T13:04:58.179Z,21.39
2018-04-28T13:05:58.181Z,21.30
2018-04-28T13:06:58.205Z,21.27
2018-04-28T13:07:58.216Z,21.13
2018-04-28T13:08:58.216Z,20.99
2018-04-28T13:09:58.237Z,20.90
2018-04-28T13:10:58.228Z,20.83
2018-04-28T13:11:58.250Z,20.83
2018-04-28T13:12:58.273Z,20.79
2018-04-28T13:13:58.306Z,20.61
2018-04-28T13:14:58.279Z,20.53
2018-04-28T13:15:58.280Z,20.43
2018-04-28T13:16:58.280Z,20.39
2018-04-28T13:17:58.289Z,20.30
2018-04-28T13:18:58.295Z,20.24
2018-04-28T13:19:58.311Z,20.12
2018-04-28T13:20:58.312Z,20.10
2018-04-28T13:21:58.327Z,20.09
2018-04-28T13:22:58.357Z,20.03
2018-04-28T13:23:58.348Z,20.02
2018-04-28T13:24:58.342Z,20.03
2018-04-28T13:25:58.352Z,20.00
2018-04-28T13:26:58.436Z,19.95
2018-04-28T13:27:58.369Z,19.93
2018-04-28T13:28:58.444Z,19.88
2018-04-28T13:29:58.381Z,20.05
2018-04-28T13:30:58.384Z,19.95
2018-04-28T13:31:58.386Z,19.90
2018-04-28T13:32:58.402Z,19.88
2018-04-28T13:33:58.405Z,19.83